Eastlake Weir, Florida
Current Conditions -  °F | °C
As of 5:53 PM on Monday 22 Dec 2014 (Local Time) from KLEE Reporting Station
Broken Clouds Broken Clouds  
Wind Chill: 72°   Ceiling: 5000
Heat Index: 72°   Visibility: 10mi
Dew Point: 67°   Wind: 5mph
Humidity: 84%   Direction: 210°SSW
Pressure: 29.92"   Gusts: NA
Location:  29.02°N, 81.91°W
Report Text: KLEE 222253Z 21004KT 10SM FEW025 SCT034 BKN050 22/19 A2992 RMK AO2 SLP132 T02220194
Loading
Personal Weather Stations






























Interactive Weather Map New forecast layout! Learn more

10-Day Weather Forecast

Advertisements
Track Severe Weather on mobile